ADDS METAR Data INFO
IDs: Format: Raw Decoded Include TAF

Data at: 2112 UTC 22 Oct 2017

KDRO 222053Z AUTO 19010KT 10SM CLR 16/M08 A3039 RMK AO2 SLP277 T01561078 57016
KDRO 221953Z AUTO 00000KT 10SM CLR 14/M08 A3040 RMK AO2 SLP283 T01391083
KDRO 221853Z AUTO 28006KT 10SM CLR 12/M10 A3043 RMK AO2 SLP298 T01171100
KDRO 221753Z AUTO 31004KT 10SM CLR 10/M12 A3044 RMK AO2 SLP307 T01001117 10100 21067 51004
KDRO 221653Z AUTO 00000KT 10SM CLR 07/M13 A3044 RMK AO2 SLP304 T00721133
KDRO 221553Z AUTO 10004KT 10SM CLR 04/M13 A3044 RMK AO2 SLP302 T00441128
KDRO 221453Z AUTO 06005KT 10SM CLR 01/M12 A3043 RMK AO2 SLP309 T00111117 53017
KDRO 221353Z AUTO 03005KT 10SM CLR M03/M12 A3041 RMK AO2 SLP311 T10281117
KDRO 221253Z AUTO 00000KT 10SM CLR M04/M13 A3037 RMK AO2 SLP296 T10391128
KDRO 221153Z AUTO 00000KT 10SM CLR M03/M13 A3037 RMK AO2 SLP284 T10331133 10000 21044 50003
KDRO 221053Z AUTO 01005KT 10SM CLR M03/M12 A3037 RMK AO2 SLP281 T10331122
KDRO 220953Z AUTO 00000KT 10SM CLR M03/M13 A3036 RMK AO2 SLP271 T10281128
KDRO 220853Z AUTO 08003KT 10SM CLR M04/M13 A3036 RMK AO2 SLP273 T10391133 51010
KDRO 220753Z AUTO 01003KT 10SM CLR M02/M14 A3035 RMK AO2 SLP267 T10171139
KDRO 220653Z AUTO 00000KT 10SM CLR M02/M14 A3034 RMK AO2 SLP268 T10221139 401391028
KDRO 220553Z AUTO 00000KT 10SM CLR M02/M15 A3032 RMK AO2 SLP263 T10171150 10106 21017 51021
KDRO 220453Z AUTO 01005KT 10SM CLR 02/M15 A3030 RMK AO2 SLP245 T00221150
KDRO 220353Z AUTO 24008KT 10SM CLR 05/M16 A3027 RMK AO2 SLP234 T00501161
KDRO 220253Z AUTO 24007KT 10SM CLR 05/M16 A3025 RMK AO2 SLP227 T00501161 51025
KDRO 220153Z AUTO 22008KT 10SM CLR 06/M16 A3022 RMK AO2 SLP221 T00611161
KDRO 220053Z AUTO 27016KT 10SM CLR 08/M15 A3019 RMK AO2 SLP200 T00831150
KDRO 212353Z AUTO 25019KT 10SM CLR 11/M16 A3015 RMK AO2 PK WND 25026/2340 SLP179 T01061161 10139 20106 53023
KDRO 212253Z AUTO 24015G25KT 10SM CLR 12/M16 A3011 RMK AO2 PK WND 26027/2154 SLP157 T01221161
KDRO 212153Z AUTO 24017G25KT 10SM CLR 13/M16 A3009 RMK AO2 PK WND 26029/2129 SLP141 T01331156
KDRO 212053Z AUTO 25019G24KT 10SM CLR 14/M17 A3007 RMK AO2 PK WND 25028/2008 SLP134 T01391172 52001
KDRO 211953Z AUTO 24018G25KT 10SM CLR 12/M17 A3006 RMK AO2 PK WND 25028/1916 SLP132 T01221167
KDRO 211853Z AUTO 24018G28KT 10SM CLR 12/M16 A3008 RMK AO2 PK WND 26030/1756 SLP130 T01221156
KDRO 211753Z AUTO 25023G29KT 10SM CLR 11/M14 A3007 RMK AO2 PK WND 27032/1712 SLP131 T01061144 10117 20044 51012
KDRO 211653Z AUTO 24018G25KT 10SM CLR 10/M13 A3006 RMK AO2 SLP124 T01001128
KDRO 211553Z AUTO 25009KT 10SM CLR 08/M07 A3005 RMK AO2 SLP125 T00831072
KDRO 211453Z AUTO 27012KT 10SM CLR 07/M08 A3002 RMK AO2 SLP121 T00671078 53022
KDRO 211353Z AUTO 27009KT 10SM CLR 04/M06 A2999 RMK AO2 SLP118 T00441061
KDRO 211253Z AUTO 27007KT 10SM CLR 06/M06 A2997 RMK AO2 SLP098 T00611056
KDRO 211153Z AUTO 27011KT 10SM CLR 07/M03 A2995 RMK AO2 SLP088 T00671033 10139 20061 53016
KDRO 211053Z AUTO 25010KT 10SM SCT085 08/M01 A2992 RMK AO2 SLP070 T00781011
KDRO 210953Z AUTO 24008KT 10SM SCT070 OVC085 09/M01 A2990 RMK AO2 SLP060 T00941011